Time;durP1;ratioP1;P1;durP2;ratioP2;P2;SDS_P1;SDS_P2;PMS_P1;PMS_P2;Temp;Humidity;BMP_temperature;BMP_pressure;BME280_temperature;BME280_humidity;BME280_pressure;Samples;Min_cycle;Max_cycle;Signal;HPM_P1;HPM_P2
2022/11/18 00:01:08;;;;;;;60.17;4.30;;;;;;;;;;5113546;28;20503;-77
2022/11/18 00:03:35;;;;;;;58.53;3.93;;;;;;;;;;5113929;28;20532;-77
2022/11/18 00:06:02;;;;;;;58.13;3.73;;;;;;;;;;5113831;28;20541;-77
2022/11/18 00:08:29;;;;;;;58.87;3.47;;;;;;;;;;5113188;28;20504;-77
2022/11/18 00:10:57;;;;;;;58.70;3.50;;;;;;;;;;5113366;28;20498;-77
2022/11/18 00:16:11;;;;;;;60.43;3.53;;;;;;;;;;5113559;28;20928;-77
2022/11/18 00:18:38;;;;;;;58.30;3.47;;;;;;;;;;5112667;28;20498;-78
2022/11/18 00:21:06;;;;;;;58.00;3.20;;;;;;;;;;5113417;28;20524;-78
2022/11/18 00:23:34;;;;;;;58.57;3.40;;;;;;;;;;5113237;28;20485;-78
2022/11/18 00:26:04;;;;;;;58.60;3.67;;;;;;;;;;5113164;28;20533;-78
2022/11/18 00:28:31;;;;;;;58.10;3.70;;;;;;;;;;5112791;28;20553;-78
2022/11/18 00:31:02;;;;;;;58.00;3.13;;;;;;;;;;5112838;28;20526;-78
2022/11/18 00:33:31;;;;;;;58.10;3.30;;;;;;;;;;5113231;28;20469;-78
2022/11/18 00:35:58;;;;;;;58.80;3.50;;;;;;;;;;5113094;28;20446;-78
2022/11/18 00:38:26;;;;;;;58.07;3.13;;;;;;;;;;5112732;28;20501;-79
2022/11/18 00:40:59;;;;;;;58.80;3.57;;;;;;;;;;5112356;28;20568;-78
2022/11/18 00:43:25;;;;;;;58.27;3.33;;;;;;;;;;5113206;28;20481;-79
2022/11/18 00:45:53;;;;;;;58.80;3.30;;;;;;;;;;5113108;28;20752;-78
2022/11/18 00:48:20;;;;;;;58.50;3.40;;;;;;;;;;5112960;28;20473;-79
2022/11/18 00:50:49;;;;;;;58.40;3.03;;;;;;;;;;5112201;28;20446;-78
2022/11/18 00:53:16;;;;;;;57.87;3.07;;;;;;;;;;5112872;28;20485;-79
2022/11/18 00:55:43;;;;;;;58.57;3.13;;;;;;;;;;5112884;28;20492;-79
2022/11/18 00:58:13;;;;;;;58.40;3.10;;;;;;;;;;5112225;28;20497;-79
2022/11/18 01:00:40;;;;;;;57.73;3.10;;;;;;;;;;5111851;28;20484;-78
2022/11/18 01:03:07;;;;;;;58.70;3.47;;;;;;;;;;5112634;28;20835;-79
2022/11/18 01:05:35;;;;;;;58.50;3.40;;;;;;;;;;5112440;28;20536;-78
2022/11/18 01:08:03;;;;;;;61.23;3.60;;;;;;;;;;5112560;28;20491;-78
2022/11/18 01:10:31;;;;;;;61.33;3.43;;;;;;;;;;5111986;28;20532;-78
2022/11/18 01:15:44;;;;;;;57.80;3.13;;;;;;;;;;5112707;28;20990;-78
2022/11/18 01:18:11;;;;;;;58.17;3.00;;;;;;;;;;5112351;28;20502;-78
2022/11/18 01:20:38;;;;;;;58.37;3.23;;;;;;;;;;5111731;28;20958;-77
2022/11/18 01:23:07;;;;;;;57.47;2.80;;;;;;;;;;5112300;28;20610;-77
2022/11/18 01:25:35;;;;;;;57.67;3.00;;;;;;;;;;5112354;28;20469;-77
2022/11/18 01:28:02;;;;;;;61.13;3.10;;;;;;;;;;5112191;28;20558;-77
2022/11/18 01:30:30;;;;;;;57.80;2.87;;;;;;;;;;5111557;28;20500;-77
2022/11/18 01:32:58;;;;;;;57.67;3.00;;;;;;;;;;5112390;28;21029;-77
2022/11/18 01:35:25;;;;;;;58.17;2.97;;;;;;;;;;5112353;28;20537;-77
2022/11/18 01:37:52;;;;;;;57.73;2.67;;;;;;;;;;5112239;28;20501;-77
2022/11/18 01:40:21;;;;;;;57.53;2.93;;;;;;;;;;5112208;28;20484;-77
2022/11/18 01:42:48;;;;;;;58.10;3.10;;;;;;;;;;5116366;28;20557;-77
2022/11/18 01:45:20;;;;;;;58.40;3.00;;;;;;;;;;5116257;28;20531;-77
2022/11/18 01:47:50;;;;;;;57.90;2.97;;;;;;;;;;5116492;28;20461;-77
2022/11/18 01:50:19;;;;;;;58.10;2.83;;;;;;;;;;5115566;28;20939;-77
2022/11/18 01:52:47;;;;;;;58.20;3.00;;;;;;;;;;5116455;28;20473;-77
2022/11/18 01:55:17;;;;;;;58.60;3.13;;;;;;;;;;5116137;28;21012;-76
2022/11/18 01:57:48;;;;;;;58.43;2.83;;;;;;;;;;5115868;28;20489;-76
2022/11/18 02:00:15;;;;;;;59.90;3.33;;;;;;;;;;5115600;28;20524;-76
2022/11/18 02:02:42;;;;;;;58.10;2.80;;;;;;;;;;5116161;28;20576;-76
2022/11/18 02:05:11;;;;;;;58.00;2.93;;;;;;;;;;5116243;28;20445;-76
2022/11/18 02:07:40;;;;;;;58.77;3.30;;;;;;;;;;5115933;28;20454;-76
2022/11/18 02:10:08;;;;;;;58.10;2.83;;;;;;;;;;5115109;28;20528;-76
2022/11/18 02:12:36;;;;;;;58.70;3.07;;;;;;;;;;5116103;28;20528;-76
2022/11/18 02:15:05;;;;;;;59.43;2.67;;;;;;;;;;5112419;28;20536;-76
2022/11/18 02:17:39;;;;;;;59.17;3.03;;;;;;;;;;5115654;28;20532;-76
2022/11/18 02:20:23;;;;;;;58.10;3.03;;;;;;;;;;5115200;28;20484;-76
2022/11/18 02:23:11;;;;;;;60.83;3.07;;;;;;;;;;5115326;28;20477;-76
2022/11/18 02:25:44;;;;;;;61.70;3.03;;;;;;;;;;5073545;28;20543;-76
2022/11/18 02:28:29;;;;;;;58.40;2.53;;;;;;;;;;5115674;28;20465;-76
2022/11/18 02:30:59;;;;;;;58.57;2.90;;;;;;;;;;5114940;28;20446;-77
2022/11/18 02:33:29;;;;;;;59.07;2.90;;;;;;;;;;5115574;28;20453;-76
2022/11/18 02:35:57;;;;;;;59.17;3.43;;;;;;;;;;5115423;28;20489;-76
2022/11/18 02:38:27;;;;;;;58.40;3.20;;;;;;;;;;5115080;28;21114;-77
2022/11/18 02:40:57;;;;;;;61.07;3.20;;;;;;;;;;5115299;28;20536;-77
2022/11/18 02:43:27;;;;;;;57.63;3.23;;;;;;;;;;5115435;28;20446;-76
2022/11/18 02:45:57;;;;;;;60.07;3.30;;;;;;;;;;5115257;28;20881;-76
2022/11/18 02:48:26;;;;;;;58.87;3.20;;;;;;;;;;5114913;28;21001;-76
2022/11/18 02:50:55;;;;;;;58.70;3.30;;;;;;;;;;5114390;28;20539;-76
2022/11/18 02:53:22;;;;;;;58.63;3.40;;;;;;;;;;5115065;28;20447;-76
2022/11/18 02:55:50;;;;;;;57.73;2.77;;;;;;;;;;5115202;28;20454;-76
2022/11/18 02:58:18;;;;;;;58.60;3.17;;;;;;;;;;5114870;28;20515;-76
2022/11/18 03:00:45;;;;;;;58.20;3.10;;;;;;;;;;5114483;28;20533;-76
2022/11/18 03:03:28;;;;;;;62.00;3.20;;;;;;;;;;5114833;28;20571;-76
2022/11/18 03:06:01;;;;;;;61.77;3.30;;;;;;;;;;5115054;28;20485;-76
2022/11/18 03:08:30;;;;;;;57.67;2.90;;;;;;;;;;5114870;28;20548;-76
2022/11/18 03:11:03;;;;;;;59.43;3.50;;;;;;;;;;5114296;28;20539;-76
2022/11/18 03:13:35;;;;;;;58.80;3.90;;;;;;;;;;5114787;28;20537;-76
2022/11/18 03:16:04;;;;;;;58.63;3.43;;;;;;;;;;5114221;28;20528;-76
2022/11/18 03:18:36;;;;;;;58.93;3.40;;;;;;;;;;5114059;28;20556;-76
2022/11/18 03:21:06;;;;;;;58.57;3.13;;;;;;;;;;5114685;28;20528;-76
2022/11/18 03:23:36;;;;;;;58.30;3.50;;;;;;;;;;5114341;28;20536;-76
2022/11/18 03:26:04;;;;;;;59.37;3.57;;;;;;;;;;5114513;28;20555;-76
2022/11/18 03:28:34;;;;;;;61.20;3.20;;;;;;;;;;5113746;28;20497;-76
2022/11/18 03:31:03;;;;;;;58.80;3.27;;;;;;;;;;5114323;28;20468;-76
2022/11/18 03:33:34;;;;;;;58.27;2.90;;;;;;;;;;5114163;28;20489;-76
2022/11/18 03:36:04;;;;;;;61.03;3.53;;;;;;;;;;5114356;28;20825;-76
2022/11/18 03:38:34;;;;;;;58.50;3.40;;;;;;;;;;5113718;28;21028;-76
2022/11/18 03:41:04;;;;;;;58.80;3.20;;;;;;;;;;5114095;28;20492;-77
2022/11/18 03:43:33;;;;;;;58.27;2.73;;;;;;;;;;5114438;28;20473;-78
2022/11/18 03:46:02;;;;;;;60.13;3.20;;;;;;;;;;5114284;28;20487;-77
2022/11/18 03:48:31;;;;;;;59.47;3.10;;;;;;;;;;5113773;28;20560;-78
2022/11/18 03:51:01;;;;;;;59.90;3.17;;;;;;;;;;5113590;28;20496;-78
2022/11/18 03:53:29;;;;;;;57.33;2.50;;;;;;;;;;5113989;28;20478;-78
2022/11/18 03:55:59;;;;;;;58.40;2.90;;;;;;;;;;5114000;28;20960;-78
2022/11/18 03:58:30;;;;;;;57.57;2.87;;;;;;;;;;5113803;28;20482;-78
2022/11/18 04:00:59;;;;;;;61.80;2.80;;;;;;;;;;5114298;28;20528;-78
2022/11/18 04:03:27;;;;;;;58.67;2.70;;;;;;;;;;5113237;28;20573;-78
2022/11/18 04:05:56;;;;;;;60.30;2.90;;;;;;;;;;5113699;28;20502;-78
2022/11/18 04:08:28;;;;;;;61.17;3.30;;;;;;;;;;5113776;28;20543;-78
2022/11/18 04:10:59;;;;;;;58.00;2.93;;;;;;;;;;5113796;28;20492;-78
2022/11/18 04:13:27;;;;;;;58.70;3.60;;;;;;;;;;5113667;28;21017;-78
2022/11/18 04:15:55;;;;;;;59.10;2.73;;;;;;;;;;5113511;28;20537;-78
2022/11/18 04:18:22;;;;;;;58.70;2.97;;;;;;;;;;5113250;28;20500;-78
2022/11/18 04:20:49;;;;;;;59.43;3.40;;;;;;;;;;5113493;28;20448;-78
2022/11/18 04:23:16;;;;;;;57.57;2.67;;;;;;;;;;5113540;28;20576;-79
2022/11/18 04:25:45;;;;;;;61.80;3.00;;;;;;;;;;5113653;28;20463;-78
2022/11/18 04:28:12;;;;;;;58.93;3.00;;;;;;;;;;5113217;28;20505;-79
2022/11/18 04:30:39;;;;;;;57.50;2.63;;;;;;;;;;5112646;28;20453;-78
2022/11/18 04:33:06;;;;;;;58.60;2.80;;;;;;;;;;5113046;28;20524;-78
2022/11/18 04:35:33;;;;;;;57.90;2.80;;;;;;;;;;5113505;28;20452;-79
2022/11/18 04:38:01;;;;;;;57.80;2.70;;;;;;;;;;5113097;28;20591;-78
2022/11/18 04:40:28;;;;;;;58.53;2.90;;;;;;;;;;5112456;28;20528;-78
2022/11/18 04:42:56;;;;;;;63.33;3.50;;;;;;;;;;5113084;28;20741;-78
2022/11/18 04:45:23;;;;;;;57.70;3.10;;;;;;;;;;5112907;28;20449;-79
2022/11/18 04:47:51;;;;;;;57.80;2.70;;;;;;;;;;5112779;28;20985;-79
2022/11/18 04:50:18;;;;;;;58.20;2.70;;;;;;;;;;5112261;28;20483;-79
2022/11/18 04:52:45;;;;;;;57.20;2.33;;;;;;;;;;5112910;28;20879;-79
2022/11/18 04:55:12;;;;;;;58.70;2.77;;;;;;;;;;5112795;28;20529;-79
2022/11/18 04:57:42;;;;;;;58.90;2.60;;;;;;;;;;5112790;28;20554;-79
2022/11/18 05:00:11;;;;;;;63.73;2.70;;;;;;;;;;5111655;28;20449;-79
2022/11/18 05:02:38;;;;;;;59.40;2.70;;;;;;;;;;5112820;28;20922;-78
2022/11/18 05:05:05;;;;;;;57.77;2.50;;;;;;;;;;5112640;28;20446;-78
2022/11/18 05:07:33;;;;;;;58.67;2.93;;;;;;;;;;5112820;28;20474;-78
2022/11/18 05:10:00;;;;;;;58.50;2.50;;;;;;;;;;5111912;28;20828;-78
2022/11/18 05:15:13;;;;;;;58.50;2.70;;;;;;;;;;5111805;28;20498;-78
2022/11/18 05:17:40;;;;;;;58.07;2.80;;;;;;;;;;5112280;28;20448;-78
2022/11/18 05:20:08;;;;;;;58.30;2.80;;;;;;;;;;5111647;28;20492;-78
2022/11/18 05:22:35;;;;;;;59.17;2.90;;;;;;;;;;5112440;28;20509;-78
2022/11/18 05:25:02;;;;;;;58.33;2.53;;;;;;;;;;5112315;28;20449;-78
2022/11/18 05:27:29;;;;;;;58.40;2.80;;;;;;;;;;5112490;28;20464;-78
2022/11/18 05:29:56;;;;;;;58.10;2.67;;;;;;;;;;5111683;28;20553;-78
2022/11/18 05:32:25;;;;;;;58.93;2.70;;;;;;;;;;5112434;28;20494;-78
2022/11/18 05:34:52;;;;;;;58.20;2.87;;;;;;;;;;5112458;28;20476;-79
2022/11/18 05:37:19;;;;;;;57.70;2.70;;;;;;;;;;5112324;28;20524;-79
2022/11/18 05:39:46;;;;;;;58.37;3.03;;;;;;;;;;5111678;28;20893;-79
2022/11/18 05:44:58;;;;;;;58.00;2.93;;;;;;;;;;5112241;28;20936;-78
2022/11/18 05:47:58;;;;;;;60.20;3.10;;;;;;;;;;5112042;28;20540;-78
2022/11/18 05:50:14;;;;;;;57.87;2.80;;;;;;;;;;5111295;28;20587;-78
2022/11/18 05:52:41;;;;;;;57.67;2.77;;;;;;;;;;5112318;28;20533;-79
2022/11/18 05:55:09;;;;;;;59.00;2.97;;;;;;;;;;5112314;28;20536;-79
2022/11/18 05:57:36;;;;;;;58.07;3.03;;;;;;;;;;5112141;28;20492;-78
2022/11/18 06:00:04;;;;;;;58.60;3.13;;;;;;;;;;5111093;28;20887;-79
2022/11/18 06:02:32;;;;;;;60.10;3.50;;;;;;;;;;5112482;28;20599;-78
2022/11/18 06:05:02;;;;;;;59.13;3.40;;;;;;;;;;5112263;28;20441;-79
2022/11/18 06:07:31;;;;;;;58.17;3.37;;;;;;;;;;5112214;28;20528;-79
2022/11/18 06:09:59;;;;;;;58.47;3.07;;;;;;;;;;5111517;28;20480;-79
2022/11/18 06:12:28;;;;;;;58.37;3.40;;;;;;;;;;5112153;28;20483;-79
2022/11/18 06:14:57;;;;;;;57.57;2.77;;;;;;;;;;5112528;28;20552;-79
2022/11/18 06:17:26;;;;;;;58.87;2.90;;;;;;;;;;5111998;28;20480;-79
2022/11/18 06:19:55;;;;;;;58.97;3.00;;;;;;;;;;5111416;28;21014;-79
2022/11/18 06:22:22;;;;;;;58.00;2.80;;;;;;;;;;5111984;28;20569;-78
2022/11/18 06:24:49;;;;;;;58.27;3.10;;;;;;;;;;5112132;28;20446;-79
2022/11/18 06:27:17;;;;;;;58.07;2.80;;;;;;;;;;5114503;28;20513;-78
2022/11/18 06:29:44;;;;;;;58.27;2.80;;;;;;;;;;5115046;28;20499;-78
2022/11/18 06:32:11;;;;;;;58.30;3.20;;;;;;;;;;5115985;28;20989;-78
2022/11/18 06:34:38;;;;;;;59.53;3.30;;;;;;;;;;5115920;28;20504;-78
2022/11/18 06:37:14;;;;;;;58.10;2.70;;;;;;;;;;5115983;28;20488;-78
2022/11/18 06:39:41;;;;;;;60.33;3.23;;;;;;;;;;5115093;28;20547;-79
2022/11/18 06:42:08;;;;;;;58.17;3.50;;;;;;;;;;5115629;28;22453;-78
2022/11/18 06:44:34;;;;;;;59.70;3.50;;;;;;;;;;5116002;28;20568;-78
2022/11/18 06:47:02;;;;;;;59.40;4.20;;;;;;;;;;5115993;28;20446;-78
2022/11/18 06:49:29;;;;;;;60.47;3.87;;;;;;;;;;5115036;28;20469;-78
2022/11/18 06:51:56;;;;;;;60.07;3.77;;;;;;;;;;5115582;28;20817;-78
2022/11/18 06:54:25;;;;;;;59.80;3.60;;;;;;;;;;5115570;28;20532;-78
2022/11/18 06:56:52;;;;;;;59.77;3.47;;;;;;;;;;5114979;28;20524;-78
2022/11/18 06:59:23;;;;;;;59.13;3.70;;;;;;;;;;5112686;28;20518;-78
2022/11/18 07:01:51;;;;;;;59.00;3.60;;;;;;;;;;5115684;28;20453;-78
2022/11/18 07:04:19;;;;;;;61.03;3.67;;;;;;;;;;5115486;28;20990;-78
2022/11/18 07:06:46;;;;;;;58.77;3.30;;;;;;;;;;5115533;28;20972;-78
2022/11/18 07:09:13;;;;;;;58.47;3.43;;;;;;;;;;5114513;28;20556;-78
2022/11/18 07:11:41;;;;;;;59.10;3.77;;;;;;;;;;5115471;28;20530;-79
2022/11/18 07:14:09;;;;;;;59.97;3.70;;;;;;;;;;5115835;28;20469;-78
2022/11/18 07:16:36;;;;;;;58.80;3.10;;;;;;;;;;5115673;28;20445;-78
2022/11/18 07:19:08;;;;;;;59.57;3.40;;;;;;;;;;5114921;28;20493;-78
2022/11/18 07:21:35;;;;;;;58.27;3.27;;;;;;;;;;5115804;28;20470;-79
2022/11/18 07:24:05;;;;;;;57.70;3.00;;;;;;;;;;5115631;28;20524;-78
2022/11/18 07:26:32;;;;;;;58.67;3.30;;;;;;;;;;5115624;28;20477;-79
2022/11/18 07:29:01;;;;;;;58.40;3.20;;;;;;;;;;5114118;28;20466;-78
2022/11/18 07:31:28;;;;;;;57.80;3.03;;;;;;;;;;5114844;28;20481;-79
2022/11/18 07:33:55;;;;;;;57.67;2.87;;;;;;;;;;5114741;28;20485;-79
2022/11/18 07:36:23;;;;;;;57.57;2.60;;;;;;;;;;5115402;28;20528;-79
2022/11/18 07:38:51;;;;;;;56.97;2.53;;;;;;;;;;5113284;28;21027;-79
2022/11/18 07:41:19;;;;;;;57.60;2.60;;;;;;;;;;5115113;28;20488;-80
2022/11/18 07:43:46;;;;;;;57.43;2.60;;;;;;;;;;5114327;28;20485;-80
2022/11/18 07:46:17;;;;;;;58.97;2.57;;;;;;;;;;5109880;28;20452;-81
2022/11/18 07:48:44;;;;;;;57.67;2.70;;;;;;;;;;5113332;28;20493;-79
2022/11/18 07:51:12;;;;;;;57.63;2.67;;;;;;;;;;5114261;28;20503;-79
2022/11/18 07:53:39;;;;;;;58.37;2.87;;;;;;;;;;5112447;28;20537;-80
2022/11/18 07:56:06;;;;;;;59.33;2.70;;;;;;;;;;5115107;28;20968;-80
2022/11/18 07:58:34;;;;;;;58.10;2.80;;;;;;;;;;5113972;28;20573;-81
2022/11/18 08:01:07;;;;;;;57.07;2.70;;;;;;;;;;5114995;28;20536;-80
2022/11/18 08:03:35;;;;;;;57.77;2.77;;;;;;;;;;5115179;28;20473;-79
2022/11/18 08:06:03;;;;;;;57.50;2.77;;;;;;;;;;5115698;28;20901;-80
2022/11/18 08:08:30;;;;;;;57.67;2.63;;;;;;;;;;5115283;28;20473;-80
2022/11/18 08:10:57;;;;;;;58.53;2.70;;;;;;;;;;5114478;28;20452;-80
2022/11/18 08:13:25;;;;;;;57.80;2.80;;;;;;;;;;5114986;28;20533;-80
2022/11/18 08:15:53;;;;;;;57.80;2.73;;;;;;;;;;5114861;28;20448;-80
2022/11/18 08:18:20;;;;;;;57.93;2.83;;;;;;;;;;5116802;28;20563;-80
2022/11/18 08:20:49;;;;;;;58.00;2.77;;;;;;;;;;5115784;28;20992;-79
2022/11/18 08:23:17;;;;;;;58.70;3.37;;;;;;;;;;5116614;28;21021;-80
2022/11/18 08:25:45;;;;;;;58.67;3.30;;;;;;;;;;5112629;28;20450;-80
2022/11/18 08:28:13;;;;;;;58.30;3.10;;;;;;;;;;5116257;28;20476;-80
2022/11/18 08:30:40;;;;;;;58.90;3.00;;;;;;;;;;5115570;28;20900;-80
2022/11/18 08:33:07;;;;;;;59.07;3.30;;;;;;;;;;5115603;28;20529;-80
2022/11/18 08:35:34;;;;;;;59.20;3.30;;;;;;;;;;5115477;28;20460;-80
2022/11/18 08:38:03;;;;;;;58.80;3.80;;;;;;;;;;5116498;28;20529;-80
2022/11/18 08:40:30;;;;;;;59.07;2.90;;;;;;;;;;5116192;28;20467;-80
2022/11/18 08:42:57;;;;;;;58.67;3.63;;;;;;;;;;5114365;28;20572;-80
2022/11/18 08:45:24;;;;;;;58.33;2.90;;;;;;;;;;5114119;28;20441;-80
2022/11/18 08:47:51;;;;;;;58.30;3.47;;;;;;;;;;5114163;28;20908;-80
2022/11/18 08:50:18;;;;;;;59.10;3.70;;;;;;;;;;5112654;28;20889;-80
2022/11/18 08:52:46;;;;;;;58.50;3.17;;;;;;;;;;5113112;28;20984;-80
2022/11/18 08:55:14;;;;;;;58.23;3.53;;;;;;;;;;5112716;28;20973;-81
2022/11/18 08:57:41;;;;;;;58.10;3.30;;;;;;;;;;5110596;28;20892;-80
2022/11/18 09:00:09;;;;;;;59.20;2.93;;;;;;;;;;5113156;28;20532;-81
2022/11/18 09:02:36;;;;;;;57.57;3.17;;;;;;;;;;5113516;28;20505;-81
2022/11/18 09:05:07;;;;;;;58.20;3.00;;;;;;;;;;5113587;28;20484;-80
2022/11/18 09:07:35;;;;;;;58.37;3.40;;;;;;;;;;5113953;28;20540;-80
2022/11/18 09:13:29;;;;;;;58.40;3.10;;;;;;;;;;5112813;28;20422;-80
2022/11/18 09:18:59;;;;;;;58.17;2.93;;;;;;;;;;5111426;28;20516;-81
2022/11/18 09:21:27;;;;;;;58.53;3.17;;;;;;;;;;5112952;28;20465;-80
2022/11/18 09:23:54;;;;;;;59.10;3.37;;;;;;;;;;5112890;28;20524;-80
2022/11/18 09:26:22;;;;;;;59.57;3.23;;;;;;;;;;5112732;28;20454;-80
2022/11/18 09:28:49;;;;;;;57.97;2.90;;;;;;;;;;5107254;28;20480;-80
2022/11/18 09:31:17;;;;;;;59.27;2.93;;;;;;;;;;5113175;28;20544;-79
2022/11/18 09:33:45;;;;;;;58.50;3.17;;;;;;;;;;5112539;28;21053;-80
2022/11/18 09:36:14;;;;;;;58.53;2.90;;;;;;;;;;5112586;28;20540;-80
2022/11/18 09:38:41;;;;;;;58.27;3.00;;;;;;;;;;5111949;28;20556;-80
2022/11/18 09:41:22;;;;;;;58.10;3.10;;;;;;;;;;5112742;28;20879;-80
2022/11/18 09:43:55;;;;;;;58.07;2.67;;;;;;;;;;5112897;28;20484;-80
2022/11/18 09:46:27;;;;;;;57.70;2.80;;;;;;;;;;5112607;28;20492;-79
2022/11/18 09:49:15;;;;;;;57.67;2.57;;;;;;;;;;5111810;28;20469;-80
2022/11/18 09:51:44;;;;;;;58.30;2.87;;;;;;;;;;5112018;28;20456;-80
2022/11/18 09:54:13;;;;;;;57.80;2.97;;;;;;;;;;5111798;28;20498;-80
2022/11/18 09:56:40;;;;;;;58.40;2.90;;;;;;;;;;5111975;28;20449;-80
2022/11/18 09:59:07;;;;;;;58.97;2.80;;;;;;;;;;5111040;28;20989;-80
2022/11/18 10:01:36;;;;;;;59.50;3.13;;;;;;;;;;5110401;28;20465;-79
2022/11/18 10:04:03;;;;;;;58.40;3.10;;;;;;;;;;5115888;28;20480;-79
2022/11/18 10:06:33;;;;;;;58.20;3.00;;;;;;;;;;5115609;28;20450;-79
2022/11/18 10:09:10;;;;;;;59.43;3.20;;;;;;;;;;5115072;28;20470;-79
2022/11/18 10:11:41;;;;;;;57.90;2.97;;;;;;;;;;5115755;28;20445;-78
2022/11/18 10:14:17;;;;;;;62.93;3.43;;;;;;;;;;5115706;28;20528;-78
2022/11/18 10:16:47;;;;;;;58.27;3.00;;;;;;;;;;5115541;28;20481;-78
2022/11/18 10:19:21;;;;;;;57.97;2.63;;;;;;;;;;5114914;28;20500;-78
2022/11/18 10:21:53;;;;;;;58.97;3.10;;;;;;;;;;5115650;28;20484;-77
2022/11/18 10:24:23;;;;;;;58.93;3.10;;;;;;;;;;5115582;28;20479;-77
2022/11/18 10:26:55;;;;;;;58.60;2.83;;;;;;;;;;5115901;28;20925;-77
2022/11/18 10:29:22;;;;;;;59.40;3.10;;;;;;;;;;5114819;28;21044;-77
2022/11/18 10:31:59;;;;;;;58.97;3.30;;;;;;;;;;5112761;28;20460;-78
2022/11/18 10:34:26;;;;;;;58.77;3.40;;;;;;;;;;5115560;28;20437;-78
2022/11/18 10:37:00;;;;;;;59.40;3.53;;;;;;;;;;5115247;28;20484;-79
2022/11/18 10:39:28;;;;;;;58.13;3.20;;;;;;;;;;5114756;28;20503;-79
2022/11/18 10:41:57;;;;;;;58.90;3.20;;;;;;;;;;5115017;28;20537;-78
2022/11/18 10:44:36;;;;;;;58.00;2.97;;;;;;;;;;5114956;28;20572;-78
2022/11/18 10:47:17;;;;;;;58.93;3.23;;;;;;;;;;5115396;28;20882;-80
2022/11/18 10:49:44;;;;;;;58.53;3.40;;;;;;;;;;5114279;28;20500;-78
2022/11/18 10:52:13;;;;;;;58.20;3.20;;;;;;;;;;5114741;28;20456;-80
2022/11/18 10:54:41;;;;;;;59.47;3.33;;;;;;;;;;5114694;28;20454;-79
2022/11/18 10:57:13;;;;;;;59.40;3.47;;;;;;;;;;5114749;28;20452;-79
2022/11/18 10:59:42;;;;;;;59.87;3.20;;;;;;;;;;5114174;28;20489;-79
2022/11/18 11:02:15;;;;;;;60.23;3.90;;;;;;;;;;5111599;28;20510;-79
2022/11/18 11:04:43;;;;;;;58.00;3.23;;;;;;;;;;5114371;28;20517;-79
2022/11/18 11:07:17;;;;;;;59.03;3.30;;;;;;;;;;5114820;28;20529;-80
2022/11/18 11:09:55;;;;;;;62.10;3.30;;;;;;;;;;5114534;28;20469;-80
2022/11/18 11:12:22;;;;;;;59.10;3.77;;;;;;;;;;5114823;28;20497;-81
2022/11/18 11:14:51;;;;;;;59.27;3.80;;;;;;;;;;5115566;28;20533;-80
2022/11/18 11:17:20;;;;;;;59.90;3.47;;;;;;;;;;5116567;28;20477;-80
2022/11/18 11:19:51;;;;;;;59.00;4.10;;;;;;;;;;5115429;28;20526;-80
2022/11/18 11:22:18;;;;;;;62.17;3.63;;;;;;;;;;5116442;28;20455;-80
2022/11/18 11:24:47;;;;;;;62.00;3.80;;;;;;;;;;5115716;28;20512;-80
2022/11/18 11:27:28;;;;;;;59.87;3.63;;;;;;;;;;5115968;28;20537;-80
2022/11/18 11:30:13;;;;;;;58.47;3.50;;;;;;;;;;5115159;28;20815;-80
2022/11/18 11:32:55;;;;;;;58.60;3.73;;;;;;;;;;5115212;28;20428;-81
2022/11/18 11:35:23;;;;;;;59.43;3.97;;;;;;;;;;5113977;28;20557;-80
2022/11/18 11:37:53;;;;;;;60.00;3.60;;;;;;;;;;5116103;28;20908;-81
2022/11/18 11:40:28;;;;;;;58.40;3.47;;;;;;;;;;5115939;28;20449;-81
2022/11/18 11:43:00;;;;;;;59.53;3.27;;;;;;;;;;5116451;28;20882;-81
2022/11/18 11:45:32;;;;;;;58.57;3.37;;;;;;;;;;5116240;28;21024;-81
2022/11/18 11:48:11;;;;;;;59.30;3.63;;;;;;;;;;5116277;28;20505;-81
2022/11/18 11:50:53;;;;;;;59.23;3.70;;;;;;;;;;5114669;28;20477;-80
2022/11/18 11:53:22;;;;;;;59.27;4.23;;;;;;;;;;5115763;28;20454;-80
2022/11/18 11:55:57;;;;;;;58.80;3.60;;;;;;;;;;5116583;28;20473;-80
2022/11/18 11:58:33;;;;;;;61.37;3.80;;;;;;;;;;5117260;28;20564;-80
2022/11/18 12:01:05;;;;;;;59.10;3.20;;;;;;;;;;5118506;28;20532;-79
2022/11/18 12:03:45;;;;;;;59.37;3.03;;;;;;;;;;5119523;28;20841;-79
2022/11/18 12:06:12;;;;;;;61.47;3.33;;;;;;;;;;5117424;28;20993;-79
2022/11/18 12:08:42;;;;;;;59.17;3.53;;;;;;;;;;5118370;28;20481;-79
2022/11/18 12:11:15;;;;;;;59.60;3.60;;;;;;;;;;5120885;28;20520;-79
2022/11/18 12:13:45;;;;;;;62.47;3.63;;;;;;;;;;5118145;28;20545;-79
2022/11/18 12:16:16;;;;;;;58.53;3.60;;;;;;;;;;5117249;28;20546;-78
2022/11/18 12:18:46;;;;;;;58.17;3.27;;;;;;;;;;5114363;28;20994;-78
2022/11/18 12:21:28;;;;;;;58.20;2.97;;;;;;;;;;5114441;28;20518;-78
2022/11/18 12:24:23;;;;;;;58.20;3.00;;;;;;;;;;5112085;28;21023;-78
2022/11/18 12:26:52;;;;;;;58.67;3.00;;;;;;;;;;5113338;28;20507;-78
2022/11/18 12:29:23;;;;;;;58.20;2.80;;;;;;;;;;5112340;28;20496;-78
2022/11/18 12:31:53;;;;;;;58.00;3.03;;;;;;;;;;5112978;28;20481;-78
2022/11/18 12:34:31;;;;;;;57.60;2.73;;;;;;;;;;5112745;28;20447;-78
2022/11/18 12:37:18;;;;;;;59.30;3.23;;;;;;;;;;5109493;28;20459;-78
2022/11/18 12:39:49;;;;;;;58.20;2.93;;;;;;;;;;5111996;28;20508;-79
2022/11/18 12:45:37;;;;;;;59.77;3.03;;;;;;;;;;5113326;28;20480;-80
2022/11/18 12:48:26;;;;;;;57.90;3.10;;;;;;;;;;5114812;28;20921;-80
2022/11/18 12:50:54;;;;;;;58.30;3.00;;;;;;;;;;5116298;28;20536;-80
2022/11/18 12:53:30;;;;;;;58.30;2.90;;;;;;;;;;5116549;28;20456;-81
2022/11/18 12:55:58;;;;;;;58.70;2.80;;;;;;;;;;5119266;28;20850;-83
2022/11/18 12:58:25;;;;;;;57.90;2.70;;;;;;;;;;5119292;28;20560;-83
2022/11/18 13:01:05;;;;;;;59.40;3.00;;;;;;;;;;5119921;28;20540;-82
2022/11/18 13:03:33;;;;;;;58.60;2.83;;;;;;;;;;5119199;28;20442;-82
2022/11/18 13:06:06;;;;;;;59.37;3.03;;;;;;;;;;5118759;28;20450;-83
2022/11/18 13:08:34;;;;;;;58.00;3.10;;;;;;;;;;5113804;28;21017;-86
2022/11/18 13:17:50;;;;;;;61.47;3.33;;;;;;;;;;5117146;28;20421;-84
2022/11/18 13:28:54;;;;;;;61.20;3.50;;;;;;;;;;5013029;28;20453;-82
2022/11/18 13:40:25;;;;;;;60.27;3.90;;;;;;;;;;5073379;28;20455;-81
2022/11/18 13:45:40;;;;;;;59.67;3.00;;;;;;;;;;5077415;28;20851;-81
2022/11/18 13:48:10;;;;;;;59.57;2.90;;;;;;;;;;5077291;28;20475;-80
2022/11/18 13:50:40;;;;;;;60.10;2.90;;;;;;;;;;5078481;28;20459;-80
2022/11/18 13:53:14;;;;;;;58.77;3.07;;;;;;;;;;5081207;28;20479;-80
2022/11/18 13:55:44;;;;;;;58.47;3.27;;;;;;;;;;5083013;28;20478;-80
2022/11/18 13:58:23;;;;;;;58.97;2.93;;;;;;;;;;5084247;28;20510;-80
2022/11/18 14:00:57;;;;;;;60.80;3.40;;;;;;;;;;5084242;28;20475;-80
2022/11/18 14:03:26;;;;;;;58.80;3.00;;;;;;;;;;5085917;28;20484;-80
2022/11/18 14:05:53;;;;;;;59.80;3.00;;;;;;;;;;5085386;28;20483;-80
2022/11/18 14:08:28;;;;;;;59.57;3.20;;;;;;;;;;5086736;28;20512;-80
2022/11/18 14:10:55;;;;;;;59.00;3.70;;;;;;;;;;5082732;28;20486;-80
2022/11/18 14:13:26;;;;;;;58.47;3.30;;;;;;;;;;5086481;28;20478;-79
2022/11/18 14:15:53;;;;;;;59.77;3.60;;;;;;;;;;5084039;28;20627;-78
2022/11/18 14:18:27;;;;;;;59.30;3.20;;;;;;;;;;5093985;28;20495;-79
2022/11/18 14:20:54;;;;;;;60.20;3.27;;;;;;;;;;5101480;28;20480;-79
2022/11/18 14:23:26;;;;;;;60.00;4.07;;;;;;;;;;5099098;28;20974;-79
2022/11/18 14:25:53;;;;;;;58.60;3.40;;;;;;;;;;5098044;28;20586;-78
2022/11/18 14:28:22;;;;;;;58.77;3.10;;;;;;;;;;5097850;28;20904;-78
2022/11/18 14:31:00;;;;;;;59.07;3.27;;;;;;;;;;5096841;28;20525;-78
2022/11/18 14:33:29;;;;;;;59.47;3.60;;;;;;;;;;5097426;28;20446;-78
2022/11/18 14:35:58;;;;;;;63.37;5.70;;;;;;;;;;5098176;28;20449;-78
2022/11/18 14:38:26;;;;;;;58.80;4.20;;;;;;;;;;5096859;28;20851;-78
2022/11/18 14:40:57;;;;;;;62.00;4.20;;;;;;;;;;5092163;28;20510;-79
2022/11/18 14:43:24;;;;;;;60.20;4.63;;;;;;;;;;5095817;28;20454;-77
2022/11/18 14:45:53;;;;;;;59.80;3.87;;;;;;;;;;5094762;28;20503;-79
2022/11/18 14:48:22;;;;;;;58.40;3.80;;;;;;;;;;5099173;28;20914;-79
2022/11/18 14:50:51;;;;;;;59.70;4.53;;;;;;;;;;5099807;28;20457;-79
2022/11/18 14:53:18;;;;;;;58.90;3.47;;;;;;;;;;5099225;28;20507;-79
2022/11/18 14:55:46;;;;;;;64.60;3.63;;;;;;;;;;5097254;28;20521;-79
2022/11/18 14:58:14;;;;;;;60.57;4.80;;;;;;;;;;5095674;28;20572;-79
2022/11/18 15:00:41;;;;;;;63.70;5.17;;;;;;;;;;5093782;28;20446;-79
2022/11/18 15:03:08;;;;;;;59.50;3.70;;;;;;;;;;5092549;28;20464;-79
2022/11/18 15:05:35;;;;;;;59.77;3.00;;;;;;;;;;5092292;28;20852;-78
2022/11/18 15:08:04;;;;;;;60.30;4.40;;;;;;;;;;5091991;28;20466;-79
2022/11/18 15:10:31;;;;;;;60.50;3.60;;;;;;;;;;5096442;28;20540;-78
2022/11/18 15:12:59;;;;;;;64.10;3.60;;;;;;;;;;5114802;28;20462;-78
2022/11/18 15:15:26;;;;;;;64.07;6.23;;;;;;;;;;5114927;28;20484;-79
2022/11/18 15:17:53;;;;;;;60.30;4.77;;;;;;;;;;5111534;28;20504;-79
2022/11/18 15:20:21;;;;;;;68.17;7.63;;;;;;;;;;5113856;28;20533;-79
2022/11/18 15:22:48;;;;;;;66.00;6.53;;;;;;;;;;5114782;28;21018;-78
2022/11/18 15:25:17;;;;;;;63.50;4.00;;;;;;;;;;5114307;28;20931;-78
2022/11/18 15:27:44;;;;;;;59.80;3.57;;;;;;;;;;5114240;28;20486;-78
2022/11/18 15:30:13;;;;;;;60.60;4.10;;;;;;;;;;5113538;28;20490;-78
2022/11/18 15:32:40;;;;;;;67.30;7.40;;;;;;;;;;5114418;28;20934;-79